Time;durP1;ratioP1;P1;durP2;ratioP2;P2;SDS_P1;SDS_P2;PMS_P1;PMS_P2;Temp;Humidity;BMP_temperature;BMP_pressure;BME280_temperature;BME280_humidity;BME280_pressure;Samples;Min_cycle;Max_cycle;Signal;HPM_P1;HPM_P2
2023/05/11 00:01:15;;;;;;;17.42;4.43;;;;;;;14.94;60.21;98698.34;5092259;28;20028;-49
2023/05/11 00:03:41;;;;;;;12.35;2.88;;;;;;;15.16;59.65;98696.75;5092251;28;20032;-49
2023/05/11 00:06:07;;;;;;;13.88;2.95;;;;;;;15.28;59.03;98695.94;5092152;28;20410;-49
2023/05/11 00:08:32;;;;;;;14.45;3.90;;;;;;;15.35;58.50;98699.28;5093444;28;20028;-50
2023/05/11 00:11:01;;;;;;;12.73;2.63;;;;;;;15.39;58.23;98697.78;5091995;28;20032;-49
2023/05/11 00:13:27;;;;;;;12.52;2.78;;;;;;;15.40;57.89;98696.75;5093356;28;20032;-50
2023/05/11 00:15:53;;;;;;;14.98;3.05;;;;;;;15.23;57.47;98686.06;5093262;28;20020;-49
2023/05/11 00:18:19;;;;;;;10.85;2.83;;;;;;;14.97;57.62;98692.63;5091870;28;20024;-49
2023/05/11 00:20:45;;;;;;;16.92;3.05;;;;;;;14.77;58.37;98692.94;5091858;28;20024;-50
2023/05/11 00:23:10;;;;;;;22.65;4.20;;;;;;;14.69;58.74;98688.78;5091891;28;20532;-49
2023/05/11 00:25:38;;;;;;;22.08;4.25;;;;;;;14.81;59.26;98688.81;5091716;28;20024;-49
2023/05/11 00:28:03;;;;;;;7.18;2.30;;;;;;;15.06;58.96;98693.88;5092952;28;20028;-49
2023/05/11 00:30:29;;;;;;;30.95;4.72;;;;;;;15.27;58.92;98684.59;5091737;28;20089;-49
2023/05/11 00:32:55;;;;;;;42.22;13.23;;;;;;;15.65;57.95;98687.75;5092925;28;20027;-49
2023/05/11 00:35:21;;;;;;;40.20;7.47;;;;;;;16.00;56.78;98681.56;5091567;28;20024;-49
2023/05/11 00:37:47;;;;;;;32.13;5.57;;;;;;;16.18;55.85;98684.84;5091511;28;20020;-49
2023/05/11 00:40:12;;;;;;;49.47;6.30;;;;;;;16.34;55.41;98685.16;5091247;28;20044;-49
2023/05/11 00:42:38;;;;;;;60.83;8.02;;;;;;;16.37;55.39;98684.66;5091458;28;20035;-49
2023/05/11 00:45:04;;;;;;;89.22;16.27;;;;;;;16.33;54.97;98680.88;5091401;28;20085;-49
2023/05/11 00:47:30;;;;;;;75.50;11.05;;;;;;;16.27;55.11;98676.53;5091360;28;20024;-49
2023/05/11 00:49:56;;;;;;;105.15;12.43;;;;;;;16.27;54.99;98677.31;5091341;28;20024;-49
2023/05/11 00:52:22;;;;;;;64.57;9.15;;;;;;;16.21;55.08;98674.84;5092912;28;20073;-49
2023/05/11 00:54:48;;;;;;;31.27;5.25;;;;;;;16.23;55.09;98672.75;5091235;28;20517;-49
2023/05/11 00:57:14;;;;;;;55.17;8.10;;;;;;;16.22;54.86;98681.72;5092555;28;20026;-49
2023/05/11 00:59:40;;;;;;;38.05;5.90;;;;;;;16.08;55.07;98679.38;5091224;28;20043;-49
2023/05/11 01:02:06;;;;;;;69.18;11.40;;;;;;;15.90;55.42;98675.06;5091117;28;20588;-49
2023/05/11 01:04:32;;;;;;;58.53;9.18;;;;;;;15.87;55.67;98672.88;5091112;28;20494;-49
2023/05/11 01:07:27;;;;;;;41.45;7.00;;;;;;;15.96;55.45;98673.31;5092379;28;20023;-50
2023/05/11 01:10:08;;;;;;;109.38;12.93;;;;;;;16.13;55.05;98673.38;5088608;28;20047;-49
2023/05/11 01:12:56;;;;;;;53.65;8.15;;;;;;;16.30;54.67;98668.13;5092378;28;20085;-49
2023/05/11 01:15:36;;;;;;;125.95;16.90;;;;;;;16.20;53.97;98676.69;5092251;28;20038;-49
2023/05/11 01:18:32;;;;;;;48.65;9.05;;;;;;;15.98;54.10;98672.03;5090840;28;20104;-49
2023/05/11 01:21:00;;;;;;;38.67;4.65;;;;;;;15.70;54.09;98667.50;5092135;28;20016;-49
2023/05/11 01:23:56;;;;;;;28.77;4.00;;;;;;;15.46;54.58;98669.38;5090808;28;20233;-49
2023/05/11 01:26:46;;;;;;;67.13;11.30;;;;;;;15.27;55.18;98673.19;5090865;28;20032;-49
2023/05/11 01:29:26;;;;;;;98.97;13.55;;;;;;;15.02;55.67;98668.13;5092059;28;20034;-49
2023/05/11 01:31:55;;;;;;;109.60;16.33;;;;;;;14.86;56.24;98673.06;5090838;28;20035;-50
2023/05/11 01:34:24;;;;;;;46.63;7.47;;;;;;;14.81;56.85;98672.94;5090741;28;20039;-49
2023/05/11 01:37:14;;;;;;;48.30;7.15;;;;;;;14.81;56.88;98665.03;5091935;28;20035;-49
2023/05/11 01:40:11;;;;;;;100.07;12.95;;;;;;;14.80;57.25;98665.25;5090387;28;20071;-49
2023/05/11 01:43:17;;;;;;;29.15;5.40;;;;;;;14.94;57.13;98664.78;5091275;28;20174;-49
2023/05/11 01:45:46;;;;;;;20.42;3.72;;;;;;;14.96;56.88;98661.94;5029565;28;20499;-50
2023/05/11 01:48:21;;;;;;;16.75;3.47;;;;;;;15.01;56.59;98664.69;5029557;28;20033;-49
2023/05/11 01:50:49;;;;;;;13.20;3.17;;;;;;;15.01;56.82;98669.16;5029592;28;20029;-50
2023/05/11 01:53:17;;;;;;;16.98;2.25;;;;;;;15.10;57.15;98659.88;5029543;28;20029;-50
2023/05/11 01:55:46;;;;;;;8.35;1.77;;;;;;;15.19;56.97;98658.47;5029451;28;20029;-49
2023/05/11 01:58:15;;;;;;;10.27;2.20;;;;;;;15.22;56.96;98657.22;5029487;28;20025;-50
2023/05/11 02:00:43;;;;;;;33.05;4.63;;;;;;;15.43;57.18;98658.44;5012748;28;20478;-49
2023/05/11 02:03:10;;;;;;;7.72;1.30;;;;;;;15.69;55.46;98652.63;5012835;28;20052;-50
2023/05/11 02:05:38;;;;;;;15.80;3.22;;;;;;;15.56;55.81;98656.34;5012828;28;20021;-49
2023/05/11 02:08:05;;;;;;;9.60;2.13;;;;;;;15.63;55.81;98652.78;5012732;28;20025;-49
2023/05/11 02:10:33;;;;;;;19.23;2.90;;;;;;;15.58;56.22;98650.84;5029294;28;20026;-50
2023/05/11 02:13:02;;;;;;;10.02;2.53;;;;;;;15.76;56.42;98648.06;5029264;28;20458;-50
2023/05/11 02:15:29;;;;;;;28.48;4.10;;;;;;;16.10;55.55;98642.09;5029254;28;20025;-49
2023/05/11 02:17:55;;;;;;;37.70;6.28;;;;;;;16.38;54.75;98646.53;5029182;28;20075;-49
2023/05/11 02:20:23;;;;;;;19.75;2.55;;;;;;;16.60;53.72;98643.16;5075438;28;20451;-49
2023/05/11 02:22:50;;;;;;;16.33;3.70;;;;;;;16.51;52.96;98653.38;5090221;28;20020;-49
2023/05/11 02:25:17;;;;;;;12.10;1.80;;;;;;;16.07;53.16;98658.44;5091570;28;20025;-49
2023/05/11 02:27:43;;;;;;;12.02;2.20;;;;;;;15.61;54.78;98658.28;5091405;28;20040;-49
2023/05/11 02:30:09;;;;;;;17.95;2.20;;;;;;;15.65;55.50;98656.78;5090489;28;20077;-49
2023/05/11 02:32:38;;;;;;;12.23;2.40;;;;;;;15.92;55.09;98654.44;5091482;28;20397;-49
2023/05/11 02:35:14;;;;;;;14.60;2.45;;;;;;;16.16;54.37;98649.06;5090139;28;20107;-49
2023/05/11 02:37:43;;;;;;;17.55;2.53;;;;;;;16.36;53.91;98657.38;5090154;28;20040;-49
2023/05/11 02:40:31;;;;;;;13.52;2.30;;;;;;;16.48;53.57;98651.19;5089759;28;20143;-50
2023/05/11 02:43:07;;;;;;;7.57;1.65;;;;;;;16.52;53.15;98650.50;5091359;28;20032;-50
2023/05/11 02:45:34;;;;;;;10.05;1.70;;;;;;;16.33;52.87;98647.25;5090028;28;20036;-49
2023/05/11 02:48:07;;;;;;;11.00;2.17;;;;;;;15.92;53.98;98646.50;5090004;28;20032;-49
2023/05/11 02:50:38;;;;;;;14.75;2.80;;;;;;;15.86;54.60;98649.31;5093395;28;20111;-49
2023/05/11 02:53:07;;;;;;;7.80;1.52;;;;;;;15.86;54.58;98636.06;5095027;28;20036;-49
2023/05/11 02:55:32;;;;;;;18.70;2.33;;;;;;;15.87;54.65;98635.81;5094877;28;20543;-49
2023/05/11 02:57:58;;;;;;;5.57;1.33;;;;;;;15.84;54.46;98640.81;5093446;28;20028;-49
2023/05/11 03:00:24;;;;;;;7.88;1.80;;;;;;;15.67;54.88;98640.69;5093477;28;20519;-49
2023/05/11 03:02:50;;;;;;;12.20;1.92;;;;;;;15.54;55.48;98637.28;5093441;28;20124;-50
2023/05/11 03:05:16;;;;;;;21.65;3.40;;;;;;;15.68;55.84;98635.16;5093415;28;20032;-49
2023/05/11 03:07:42;;;;;;;5.88;1.67;;;;;;;15.75;55.28;98637.69;5093366;28;20027;-49
2023/05/11 03:10:09;;;;;;;14.57;2.13;;;;;;;15.57;55.43;98636.81;5093292;28;20032;-49
2023/05/11 03:12:35;;;;;;;15.27;2.00;;;;;;;15.40;55.54;98635.13;5094551;28;20028;-49
2023/05/11 03:15:02;;;;;;;14.25;2.17;;;;;;;15.21;56.33;98631.81;5094548;28;20508;-50
2023/05/11 03:17:29;;;;;;;14.40;1.98;;;;;;;15.16;56.46;98637.78;5093233;28;20077;-49
2023/05/11 03:19:58;;;;;;;17.02;2.88;;;;;;;15.15;56.42;98636.16;5093016;28;20024;-49
2023/05/11 03:22:25;;;;;;;10.48;3.10;;;;;;;15.18;56.82;98635.72;5093140;28;20027;-49
2023/05/11 03:24:51;;;;;;;16.60;2.10;;;;;;;15.33;56.82;98635.22;5092993;28;20031;-49
2023/05/11 03:27:18;;;;;;;10.65;1.98;;;;;;;15.36;56.72;98629.50;5093118;28;20067;-49
2023/05/11 03:29:44;;;;;;;7.15;1.52;;;;;;;15.44;56.72;98625.69;5094205;28;20063;-49
2023/05/11 03:32:11;;;;;;;12.05;2.75;;;;;;;15.54;56.17;98626.69;5094104;28;20489;-49
2023/05/11 03:34:37;;;;;;;6.80;1.70;;;;;;;15.61;56.04;98623.91;5092851;28;20409;-49
2023/05/11 03:37:05;;;;;;;6.28;1.45;;;;;;;15.65;55.59;98619.75;5092913;28;20031;-49
2023/05/11 03:39:32;;;;;;;8.75;1.83;;;;;;;15.64;55.85;98620.81;5092324;28;20052;-49
2023/05/11 03:42:00;;;;;;;16.23;2.22;;;;;;;15.67;55.75;98611.59;5093992;28;20433;-49
2023/05/11 03:44:29;;;;;;;8.65;1.70;;;;;;;15.69;55.65;98620.88;5093943;28;20021;-49
2023/05/11 03:46:56;;;;;;;6.05;1.52;;;;;;;15.57;55.80;98612.19;5093922;28;20024;-49
2023/05/11 03:49:23;;;;;;;6.50;1.70;;;;;;;15.50;56.35;98614.19;5092577;28;20031;-49
2023/05/11 03:51:49;;;;;;;11.77;2.33;;;;;;;15.31;56.56;98614.34;5093816;28;20041;-49
2023/05/11 03:54:15;;;;;;;4.95;1.55;;;;;;;15.34;56.87;98613.84;5092450;28;20689;-49
2023/05/11 03:56:40;;;;;;;8.02;1.45;;;;;;;15.15;57.04;98607.09;5092428;28;20093;-49
2023/05/11 03:59:08;;;;;;;9.65;1.83;;;;;;;14.91;57.98;98612.41;5092297;28;20428;-50
2023/05/11 04:01:34;;;;;;;11.82;2.00;;;;;;;14.70;59.11;98605.06;5091834;28;20106;-49
2023/05/11 04:04:00;;;;;;;19.92;2.85;;;;;;;14.85;59.19;98605.41;5075447;28;20020;-49
2023/05/11 04:06:26;;;;;;;10.93;2.90;;;;;;;15.08;58.85;98609.06;5093492;28;20027;-49
2023/05/11 04:08:51;;;;;;;12.20;2.70;;;;;;;15.29;58.42;98600.53;5093450;28;20034;-50
2023/05/11 04:11:17;;;;;;;19.90;3.15;;;;;;;15.51;58.10;98605.19;5093425;28;20020;-49
2023/05/11 04:13:42;;;;;;;33.35;4.35;;;;;;;15.65;57.61;98600.44;5092097;28;20050;-49
2023/05/11 04:16:08;;;;;;;43.05;6.18;;;;;;;15.65;57.25;98597.78;5093321;28;20092;-49
2023/05/11 04:18:34;;;;;;;14.88;2.22;;;;;;;15.60;57.32;98595.84;5091899;28;20058;-49
2023/05/11 04:21:00;;;;;;;15.98;2.95;;;;;;;15.56;57.55;98600.00;5093279;28;20016;-49
2023/05/11 04:23:25;;;;;;;9.15;1.58;;;;;;;15.54;57.47;98592.31;5091902;28;20028;-49
2023/05/11 04:25:53;;;;;;;6.78;1.55;;;;;;;15.50;57.77;98599.09;5093194;28;20023;-49
2023/05/11 04:28:20;;;;;;;13.93;3.00;;;;;;;15.45;57.91;98599.00;5092128;28;20038;-49
2023/05/11 04:30:54;;;;;;;6.90;1.88;;;;;;;15.32;58.18;98597.41;5091760;28;20405;-49
2023/05/11 04:33:20;;;;;;;5.72;1.30;;;;;;;15.12;58.77;98604.94;5091869;28;20028;-49
2023/05/11 04:35:46;;;;;;;9.38;1.67;;;;;;;15.03;59.33;98603.66;5092968;28;20020;-50
2023/05/11 04:38:12;;;;;;;26.83;6.10;;;;;;;14.98;59.73;98602.50;5091594;28;20175;-49
2023/05/11 04:40:39;;;;;;;7.93;2.20;;;;;;;14.99;59.73;98598.06;5092498;28;20058;-49
2023/05/11 04:43:05;;;;;;;16.77;2.60;;;;;;;14.95;59.86;98591.59;5091499;28;20405;-49
2023/05/11 04:45:30;;;;;;;43.50;24.80;;;;;;;15.00;60.19;98596.22;5092768;28;20031;-49
2023/05/11 04:47:56;;;;;;;15.02;4.97;;;;;;;15.03;59.91;98593.09;5074505;28;20028;-49
2023/05/11 04:50:22;;;;;;;15.52;5.93;;;;;;;15.08;60.33;98596.66;5092747;28;20025;-49
2023/05/11 04:52:47;;;;;;;20.77;4.90;;;;;;;15.23;60.20;98598.00;5092663;28;20030;-49
2023/05/11 04:55:13;;;;;;;39.33;7.90;;;;;;;15.41;59.78;98599.69;5091335;28;20012;-49
2023/05/11 04:57:39;;;;;;;26.23;6.28;;;;;;;15.52;59.30;98601.53;5091246;28;20031;-49
2023/05/11 05:00:08;;;;;;;13.90;3.33;;;;;;;15.51;59.47;98605.19;5091141;28;20470;-49
2023/05/11 05:02:35;;;;;;;31.13;3.78;;;;;;;15.49;59.47;98599.31;5091147;28;20454;-49
2023/05/11 05:05:00;;;;;;;18.63;2.78;;;;;;;15.57;59.67;98601.59;5091130;28;20085;-49
2023/05/11 05:07:26;;;;;;;24.13;3.05;;;;;;;15.73;59.16;98600.88;5091090;28;20478;-49
2023/05/11 05:09:52;;;;;;;16.38;2.10;;;;;;;15.89;58.76;98604.63;5091055;28;20027;-49
2023/05/11 05:12:18;;;;;;;11.68;2.00;;;;;;;16.06;58.52;98601.25;5091675;28;20028;-49
2023/05/11 05:14:43;;;;;;;22.15;3.15;;;;;;;16.28;57.84;98599.50;5090980;28;20016;-49
2023/05/11 05:17:09;;;;;;;17.77;2.30;;;;;;;16.60;57.04;98595.47;5090938;28;20366;-49
2023/05/11 05:19:34;;;;;;;52.58;4.80;;;;;;;16.80;56.19;98598.44;5090854;28;20409;-49
2023/05/11 05:22:00;;;;;;;144.52;10.93;;;;;;;16.99;55.91;98598.22;5092134;28;20432;-49
2023/05/11 05:24:26;;;;;;;183.80;11.55;;;;;;;17.11;55.43;98597.06;5090807;28;20371;-49
2023/05/11 05:26:51;;;;;;;264.15;17.48;;;;;;;17.24;55.03;98592.44;5090760;28;20020;-49
2023/05/11 05:29:17;;;;;;;54.80;6.93;;;;;;;17.39;54.48;98594.50;5092025;28;20029;-49
2023/05/11 05:31:43;;;;;;;48.20;4.90;;;;;;;17.43;53.99;98600.91;5092333;28;20078;-48
2023/05/11 05:34:08;;;;;;;16.52;2.42;;;;;;;17.35;53.54;98604.78;5090711;28;20024;-49
2023/05/11 05:36:34;;;;;;;15.18;3.25;;;;;;;17.25;53.85;98594.06;5090624;28;20024;-49
2023/05/11 05:39:02;;;;;;;9.70;1.73;;;;;;;17.15;53.99;98602.69;5091720;28;20083;-50
2023/05/11 05:41:28;;;;;;;19.95;2.25;;;;;;;17.02;54.41;98603.00;5090602;28;20141;-49
2023/05/11 05:43:54;;;;;;;16.38;2.33;;;;;;;16.87;54.76;98601.75;5091904;28;20186;-49
2023/05/11 05:46:19;;;;;;;24.38;2.70;;;;;;;16.73;55.33;98611.06;5090527;28;20432;-49
2023/05/11 05:48:45;;;;;;;18.58;4.03;;;;;;;16.82;55.49;98611.47;5091850;28;20016;-49
2023/05/11 05:51:11;;;;;;;34.22;4.30;;;;;;;16.92;55.51;98607.16;5091799;28;20072;-49
2023/05/11 05:53:36;;;;;;;15.15;2.50;;;;;;;17.13;54.61;98602.13;5091822;28;20405;-49
2023/05/11 05:56:02;;;;;;;10.85;2.10;;;;;;;17.43;54.21;98595.59;5091754;28;20096;-49
2023/05/11 05:58:28;;;;;;;9.52;2.10;;;;;;;17.69;53.19;98600.16;5090367;28;20080;-47
2023/05/11 06:00:53;;;;;;;8.38;2.25;;;;;;;17.49;53.45;98594.63;5091649;28;20035;-47
2023/05/11 06:03:19;;;;;;;12.55;1.98;;;;;;;17.40;53.82;98606.69;5090713;28;20050;-47
2023/05/11 06:05:45;;;;;;;16.85;2.38;;;;;;;17.69;53.56;98604.66;5090354;28;20427;-47
2023/05/11 06:08:10;;;;;;;9.73;2.38;;;;;;;17.72;53.08;98612.13;5090454;28;20055;-47
2023/05/11 06:10:36;;;;;;;8.20;1.48;;;;;;;17.55;53.20;98589.09;5091687;28;20494;-47
2023/05/11 06:13:02;;;;;;;10.73;2.63;;;;;;;17.40;53.66;98596.88;5090348;28;20028;-47
2023/05/11 06:15:28;;;;;;;15.55;1.73;;;;;;;17.29;53.78;98606.56;5091634;28;20023;-47
2023/05/11 06:17:53;;;;;;;9.90;1.85;;;;;;;17.23;54.31;98602.25;5091543;28;20047;-47
2023/05/11 06:20:20;;;;;;;19.10;2.10;;;;;;;17.44;54.16;98602.50;5091626;28;20028;-47
2023/05/11 06:22:46;;;;;;;15.70;2.00;;;;;;;17.66;53.71;98602.50;5090547;28;20511;-47
2023/05/11 06:25:11;;;;;;;10.10;1.92;;;;;;;17.76;53.28;98595.44;5094707;28;20024;-47
2023/05/11 06:27:37;;;;;;;9.50;1.80;;;;;;;17.82;53.25;98593.63;5095467;28;20501;-47
2023/05/11 06:30:03;;;;;;;9.05;2.28;;;;;;;17.70;53.27;98606.25;5094121;28;20550;-47
2023/05/11 06:32:29;;;;;;;17.35;2.10;;;;;;;17.78;53.27;98595.97;5094420;28;20026;-47
2023/05/11 06:34:54;;;;;;;5.97;1.38;;;;;;;18.03;52.77;98593.88;5095404;28;20393;-47
2023/05/11 06:37:20;;;;;;;11.45;1.30;;;;;;;18.33;51.85;98596.00;5095343;28;20024;-47
2023/05/11 06:39:47;;;;;;;14.82;1.60;;;;;;;18.45;51.53;98588.69;5093651;28;20131;-47
2023/05/11 06:42:12;;;;;;;70.43;8.00;;;;;;;18.98;50.76;98590.66;5095180;28;20024;-47
2023/05/11 06:44:40;;;;;;;71.97;6.40;;;;;;;19.82;49.10;98583.53;5095145;28;20050;-47
2023/05/11 06:47:07;;;;;;;30.80;3.13;;;;;;;20.64;47.20;98576.41;5095299;28;20367;-47
2023/05/11 06:49:33;;;;;;;178.65;11.63;;;;;;;21.45;44.69;98579.16;5093763;28;20127;-47
2023/05/11 06:51:58;;;;;;;41.13;6.22;;;;;;;21.71;44.03;98574.47;5093684;28;20467;-47
2023/05/11 06:54:24;;;;;;;24.25;3.90;;;;;;;22.16;43.06;98575.25;5093609;28;20028;-47
2023/05/11 06:56:50;;;;;;;14.70;1.98;;;;;;;22.59;41.82;98575.47;5093844;28;20038;-47
2023/05/11 06:59:15;;;;;;;16.15;3.92;;;;;;;23.40;39.70;98575.69;5094790;28;20501;-47
2023/05/11 07:01:41;;;;;;;21.85;3.67;;;;;;;23.53;39.35;98576.88;5093722;28;20430;-47
2023/05/11 07:04:07;;;;;;;23.25;2.40;;;;;;;23.81;38.35;98571.69;5093430;28;20032;-47
2023/05/11 07:06:33;;;;;;;33.10;2.83;;;;;;;24.24;37.53;98585.78;5094692;28;20020;-47
2023/05/11 07:08:58;;;;;;;23.90;2.42;;;;;;;24.23;37.12;98578.81;5094620;28;20032;-47
2023/05/11 07:11:24;;;;;;;11.10;1.33;;;;;;;23.55;38.16;98585.41;5094572;28;20402;-47
2023/05/11 07:13:50;;;;;;;15.50;2.25;;;;;;;22.99;38.77;98581.47;5093563;28;20405;-47
2023/05/11 07:16:16;;;;;;;30.13;14.63;;;;;;;22.39;40.12;98584.47;5093168;28;20174;-47
2023/05/11 07:18:42;;;;;;;70.30;61.10;;;;;;;22.06;40.41;98580.69;5093064;28;20035;-47
2023/05/11 07:21:08;;;;;;;16.60;10.00;;;;;;;21.93;40.70;98580.25;5093369;28;20063;-47
2023/05/11 07:23:33;;;;;;;13.98;3.13;;;;;;;21.96;40.71;98584.22;5094281;28;20100;-47
2023/05/11 07:26:00;;;;;;;10.57;2.03;;;;;;;21.88;40.70;98579.47;5094329;28;20062;-47
2023/05/11 07:28:26;;;;;;;3.88;1.75;;;;;;;22.37;40.17;98577.81;5094267;28;20510;-47
2023/05/11 07:30:52;;;;;;;5.20;0.93;;;;;;;22.91;39.50;98579.44;5094157;28;20031;-47
2023/05/11 07:33:17;;;;;;;6.63;1.45;;;;;;;23.04;38.57;98584.16;5094205;28;20103;-47
2023/05/11 07:35:43;;;;;;;7.80;1.30;;;;;;;22.89;39.11;98584.28;5092112;28;20493;-46
2023/05/11 07:38:10;;;;;;;11.93;1.67;;;;;;;22.64;38.97;98577.31;5092725;28;20561;-47
2023/05/11 07:40:36;;;;;;;15.07;1.73;;;;;;;22.46;39.15;98576.91;5092527;28;20044;-47
2023/05/11 07:43:02;;;;;;;21.38;2.60;;;;;;;22.33;39.51;98572.22;5094012;28;20043;-47
2023/05/11 07:45:27;;;;;;;15.02;2.85;;;;;;;22.15;39.99;98581.66;5093866;28;20419;-47
2023/05/11 07:47:53;;;;;;;10.82;1.73;;;;;;;21.16;41.93;98574.44;5093991;28;20434;-47
2023/05/11 07:50:18;;;;;;;9.10;1.80;;;;;;;20.21;43.67;98583.09;5094168;28;20489;-47
2023/05/11 07:52:44;;;;;;;12.05;2.30;;;;;;;19.72;45.00;98590.47;5093781;28;20024;-47
2023/05/11 07:55:10;;;;;;;15.02;2.22;;;;;;;19.44;45.77;98583.69;5093766;28;20100;-47
2023/05/11 07:57:36;;;;;;;10.48;2.90;;;;;;;19.28;46.22;98593.47;5093741;28;20020;-47
2023/05/11 08:00:03;;;;;;;10.43;2.58;;;;;;;19.23;46.48;98590.78;5093538;28;20501;-47
2023/05/11 08:02:29;;;;;;;8.07;1.75;;;;;;;19.28;46.44;98579.38;5093617;28;20047;-47
2023/05/11 08:04:55;;;;;;;10.85;1.55;;;;;;;19.27;46.48;98581.22;5092319;28;20063;-47
2023/05/11 08:07:20;;;;;;;12.32;1.73;;;;;;;19.46;46.63;98568.25;5092469;28;20511;-49
2023/05/11 08:09:46;;;;;;;14.82;2.40;;;;;;;20.30;46.47;98568.16;5093530;28;20389;-47
2023/05/11 08:12:12;;;;;;;11.32;2.53;;;;;;;22.03;42.61;98565.19;5093424;28;20047;-47
2023/05/11 08:14:37;;;;;;;7.53;1.23;;;;;;;22.95;39.97;98553.69;5075487;28;20437;-47
2023/05/11 08:17:04;;;;;;;6.85;1.20;;;;;;;23.39;38.76;98559.91;5092039;28;20565;-47
2023/05/11 08:19:30;;;;;;;8.25;1.17;;;;;;;23.56;38.56;98554.84;5093245;28;20501;-47
2023/05/11 08:21:55;;;;;;;16.88;1.63;;;;;;;23.86;37.37;98550.97;5091893;28;20066;-47
2023/05/11 08:24:21;;;;;;;12.45;1.42;;;;;;;25.01;35.94;98538.84;5093270;28;20095;-47
2023/05/11 08:26:47;;;;;;;9.93;0.98;;;;;;;26.95;32.02;98526.53;5093169;28;20431;-48
2023/05/11 08:29:13;;;;;;;6.38;1.13;;;;;;;26.77;31.51;98529.16;5093081;28;20035;-47
2023/05/11 08:31:39;;;;;;;8.07;1.45;;;;;;;27.32;31.38;98535.19;5093351;28;20028;-47
2023/05/11 08:34:07;;;;;;;3.10;1.00;;;;;;;30.02;28.40;98523.44;5092930;28;20032;-47
2023/05/11 08:36:34;;;;;;;4.38;1.00;;;;;;;31.99;25.10;98524.16;5092925;28;20390;-48
2023/05/11 08:39:00;;;;;;;6.35;1.08;;;;;;;31.38;25.73;98510.81;5091305;28;20514;-48
2023/05/11 08:41:25;;;;;;;3.97;0.90;;;;;;;30.13;26.42;98510.28;5092875;28;20043;-48
2023/05/11 08:43:52;;;;;;;16.35;13.43;;;;;;;28.99;28.05;98521.91;5092871;28;20505;-48
2023/05/11 08:46:23;;;;;;;8.50;3.28;;;;;;;27.99;29.00;98524.00;5092715;28;20055;-47
2023/05/11 08:48:49;;;;;;;9.25;1.50;;;;;;;26.96;30.38;98522.72;5092159;28;20032;-47
2023/05/11 08:51:15;;;;;;;5.97;1.25;;;;;;;25.68;32.97;98524.81;5092977;28;20265;-47
2023/05/11 08:53:41;;;;;;;8.45;1.50;;;;;;;24.81;34.38;98525.78;5092632;28;20056;-47
2023/05/11 08:56:08;;;;;;;16.27;2.05;;;;;;;23.80;37.56;98529.91;5092642;28;20060;-47
2023/05/11 08:58:36;;;;;;;11.57;1.65;;;;;;;22.72;39.00;98525.88;5074747;28;20031;-47
2023/05/11 09:01:04;;;;;;;10.00;1.50;;;;;;;22.07;40.24;98529.63;5092580;28;20024;-47
2023/05/11 09:03:33;;;;;;;25.23;2.00;;;;;;;21.66;41.94;98526.44;5092548;28;20073;-47
2023/05/11 09:06:01;;;;;;;11.10;2.10;;;;;;;21.37;43.80;98534.31;5091138;28;20040;-47
2023/05/11 09:08:30;;;;;;;55.20;4.40;;;;;;;21.01;47.49;98535.28;5092346;28;20028;-47
2023/05/11 09:10:56;;;;;;;14.60;1.92;;;;;;;20.46;47.62;98528.94;5092307;28;20082;-47
2023/05/11 09:13:23;;;;;;;44.20;3.72;;;;;;;20.11;49.89;98539.38;5090936;28;20417;-47
2023/05/11 09:15:48;;;;;;;57.70;5.38;;;;;;;20.39;49.11;98526.56;5092211;28;20493;-47
2023/05/11 09:18:14;;;;;;;19.70;2.28;;;;;;;20.79;47.89;98540.94;5092190;28;20135;-47
2023/05/11 09:20:43;;;;;;;15.57;2.05;;;;;;;21.32;46.14;98530.59;5092250;28;20047;-47
2023/05/11 09:23:09;;;;;;;36.00;3.38;;;;;;;21.83;44.56;98520.72;5090868;28;20501;-47
2023/05/11 09:25:38;;;;;;;31.25;2.50;;;;;;;21.97;43.43;98519.00;5092109;28;20133;-47
2023/05/11 09:28:04;;;;;;;8.25;1.35;;;;;;;23.32;41.43;98507.50;5092097;28;20017;-47
2023/05/11 09:30:30;;;;;;;11.32;1.48;;;;;;;26.33;35.98;98506.59;5090800;28;20035;-48
2023/05/11 09:32:58;;;;;;;9.55;1.33;;;;;;;28.47;31.94;98504.03;5092051;28;20016;-48
2023/05/11 09:35:32;;;;;;;5.10;1.30;;;;;;;29.77;30.05;98484.69;5092030;28;20020;-48
2023/05/11 09:38:03;;;;;;;8.38;1.00;;;;;;;31.14;27.60;98482.59;5092298;28;20030;-48
2023/05/11 09:40:34;;;;;;;2.40;0.70;;;;;;;32.21;25.35;98481.31;5090461;28;20430;-48
2023/05/11 09:43:00;;;;;;;18.50;2.33;;;;;;;33.48;24.42;98474.91;5091949;28;20032;-48
2023/05/11 09:45:40;;;;;;;26.98;2.45;;;;;;;35.02;22.87;98463.97;5091857;28;20056;-46
2023/05/11 09:48:13;;;;;;;28.98;2.28;;;;;;;33.69;22.09;98471.88;5090559;28;20016;-45
2023/05/11 09:50:39;;;;;;;40.22;3.20;;;;;;;32.59;22.56;98482.66;5091852;28;20101;-48
2023/05/11 09:53:05;;;;;;;25.17;2.60;;;;;;;31.77;23.75;98479.38;5091854;28;20040;-48
2023/05/11 09:55:31;;;;;;;27.13;2.60;;;;;;;32.42;22.91;98467.50;5091749;28;20020;-48
2023/05/11 09:57:58;;;;;;;10.15;1.00;;;;;;;31.06;23.95;98468.03;5091723;28;20027;-48
2023/05/11 10:00:25;;;;;;;10.05;1.23;;;;;;;31.22;24.03;98468.13;5094159;28;20032;-48
2023/05/11 10:03:05;;;;;;;16.23;2.28;;;;;;;30.91;24.48;98459.81;5095944;28;20435;-48
2023/05/11 10:05:33;;;;;;;8.88;1.50;;;;;;;30.32;25.72;98453.72;5094511;28;20509;-48
2023/05/11 10:08:03;;;;;;;9.85;1.58;;;;;;;30.07;25.67;98459.06;5094589;28;20027;-48
2023/05/11 10:10:32;;;;;;;11.13;1.55;;;;;;;28.81;26.64;98458.28;5096101;28;20509;-48
2023/05/11 10:12:59;;;;;;;12.52;1.52;;;;;;;27.48;27.81;98458.16;5095991;28;20012;-47
2023/05/11 10:15:27;;;;;;;9.85;1.50;;;;;;;26.35;29.05;98458.66;5095684;28;20532;-48
2023/05/11 10:17:55;;;;;;;64.57;5.70;;;;;;;26.19;29.79;98457.47;5094329;28;20024;-47
2023/05/11 10:20:21;;;;;;;31.20;2.90;;;;;;;28.14;28.49;98457.13;5095478;28;20020;-47
2023/05/11 10:22:48;;;;;;;7.85;1.05;;;;;;;29.00;26.79;98450.56;5095606;28;20028;-47
2023/05/11 10:25:15;;;;;;;17.90;1.60;;;;;;;28.07;27.58;98455.72;5095449;28;20028;-48
2023/05/11 10:27:41;;;;;;;11.65;1.92;;;;;;;27.10;29.38;98453.34;5094293;28;20020;-47
2023/05/11 10:30:09;;;;;;;7.03;1.08;;;;;;;26.60;30.51;98456.41;5095425;28;20052;-47
2023/05/11 10:32:38;;;;;;;13.57;2.20;;;;;;;28.28;28.85;98449.63;5094043;28;20402;-47
2023/05/11 10:35:05;;;;;;;8.63;1.52;;;;;;;29.57;26.88;98437.59;5094102;28;20024;-48
2023/05/11 10:37:32;;;;;;;3.53;0.80;;;;;;;30.52;25.03;98435.00;5094003;28;20393;-48
2023/05/11 10:39:58;;;;;;;5.35;1.20;;;;;;;30.95;24.88;98430.91;5093687;28;20568;-48
2023/05/11 10:42:37;;;;;;;5.75;1.00;;;;;;;31.98;23.82;98427.59;5093809;28;20024;-48
2023/05/11 10:45:21;;;;;;;3.30;0.90;;;;;;;31.56;23.59;98419.13;5077023;28;20039;-48
2023/05/11 10:47:58;;;;;;;8.45;1.13;;;;;;;29.96;24.67;98421.94;5095137;28;20031;-47
2023/05/11 10:50:55;;;;;;;10.70;1.52;;;;;;;28.81;25.83;98413.16;5095023;28;20028;-48
2023/05/11 10:53:35;;;;;;;8.32;1.15;;;;;;;28.47;26.83;98417.63;5093659;28;20394;-47
2023/05/11 10:56:23;;;;;;;2.05;0.70;;;;;;;29.90;25.43;98404.34;5076829;28;20055;-47
2023/05/11 10:59:15;;;;;;;10.18;1.42;;;;;;;29.11;25.31;98413.16;5093562;28;20081;-47
2023/05/11 11:01:43;;;;;;;6.03;1.20;;;;;;;28.34;26.48;98415.94;5094873;28;20545;-47
2023/05/11 11:04:11;;;;;;;7.10;1.30;;;;;;;27.76;26.81;98407.38;5093466;28;20081;-48
2023/05/11 11:06:40;;;;;;;9.65;2.13;;;;;;;26.87;28.00;98413.06;5093415;28;20020;-47
2023/05/11 11:09:14;;;;;;;15.65;1.55;;;;;;;26.28;28.87;98407.19;5093401;28;20031;-47
2023/05/11 11:11:49;;;;;;;4.60;1.02;;;;;;;26.87;28.63;98405.00;5093392;28;20111;-47
2023/05/11 11:14:17;;;;;;;4.43;0.65;;;;;;;28.87;26.07;98394.84;5093301;28;20498;-48
2023/05/11 11:17:13;;;;;;;6.20;1.58;;;;;;;31.12;24.41;98387.28;5094466;28;20024;-47
2023/05/11 11:19:39;;;;;;;11.38;1.10;;;;;;;32.25;22.70;98379.00;5094450;28;20034;-48
2023/05/11 11:22:05;;;;;;;14.93;2.08;;;;;;;33.14;22.03;98373.97;5093123;28;20400;-48
2023/05/11 11:24:37;;;;;;;17.27;1.33;;;;;;;33.63;21.43;98366.00;5094367;28;20020;-48
2023/05/11 11:27:07;;;;;;;17.35;2.50;;;;;;;32.10;21.66;98377.88;5093108;28;20115;-47
2023/05/11 11:29:37;;;;;;;9.50;0.85;;;;;;;30.02;22.90;98374.59;5093077;28;20446;-47
2023/05/11 11:32:22;;;;;;;10.88;1.38;;;;;;;28.36;25.12;98388.63;5092990;28;20032;-47